createdAt,value
2017-06-23T00:01:32.871Z,24.80
2017-06-23T00:04:00.426Z,24.80
2017-06-23T00:06:27.976Z,24.80
2017-06-23T00:08:55.503Z,24.90
2017-06-23T00:11:23.299Z,25.00
2017-06-23T00:13:51.200Z,25.10
2017-06-23T00:16:18.710Z,25.20
2017-06-23T00:18:46.217Z,25.20
2017-06-23T00:21:13.823Z,25.20
2017-06-23T00:23:41.364Z,25.20
2017-06-23T00:26:08.876Z,25.10
2017-06-23T00:28:36.542Z,25.10
2017-06-23T00:31:04.083Z,25.10
2017-06-23T00:33:31.591Z,25.00
2017-06-23T00:35:59.442Z,25.10
2017-06-23T00:38:26.947Z,25.00
2017-06-23T00:40:54.463Z,25.00
2017-06-23T00:43:22.172Z,25.00
2017-06-23T00:45:49.687Z,25.00
2017-06-23T00:48:17.228Z,25.00
2017-06-23T00:50:44.767Z,25.00
2017-06-23T00:53:12.331Z,24.90
2017-06-23T00:55:40.199Z,25.00
2017-06-23T00:58:07.715Z,25.00
2017-06-23T01:00:35.234Z,25.00
2017-06-23T01:03:03.067Z,25.10
2017-06-23T01:05:30.579Z,25.10
2017-06-23T01:07:58.090Z,25.20
2017-06-23T01:10:26.006Z,25.20
2017-06-23T01:12:53.537Z,25.20
2017-06-23T01:15:21.091Z,25.20
2017-06-23T01:17:49.418Z,25.30
2017-06-23T01:20:16.964Z,25.10
2017-06-23T01:22:44.471Z,25.40
2017-06-23T01:25:12.288Z,25.30
2017-06-23T01:27:39.795Z,25.30
2017-06-23T01:30:07.335Z,25.40
2017-06-23T01:32:35.288Z,25.40
2017-06-23T01:35:02.855Z,25.50
2017-06-23T01:37:30.362Z,25.60
2017-06-23T01:39:58.186Z,25.50
2017-06-23T01:42:25.699Z,25.60
2017-06-23T01:44:53.201Z,25.80
2017-06-23T01:47:21.021Z,25.80
2017-06-23T01:49:48.556Z,25.90
2017-06-23T01:52:16.068Z,26.00
2017-06-23T01:54:43.640Z,26.00
2017-06-23T01:57:11.174Z,26.00
2017-06-23T01:59:38.679Z,26.00
2017-06-23T02:02:06.519Z,25.90
2017-06-23T02:04:34.034Z,25.90
2017-06-23T02:07:01.742Z,25.90
2017-06-23T02:09:29.319Z,25.80
2017-06-23T02:11:56.887Z,25.80
2017-06-23T02:14:24.399Z,25.80
2017-06-23T02:16:52.214Z,25.80
2017-06-23T02:19:19.723Z,25.80
2017-06-23T02:21:47.229Z,25.70
2017-06-23T02:24:14.834Z,25.60
2017-06-23T02:26:42.355Z,25.50
2017-06-23T02:29:09.870Z,25.50
2017-06-23T02:31:37.695Z,25.40
2017-06-23T02:34:05.217Z,25.40
2017-06-23T02:36:32.727Z,25.30
2017-06-23T02:39:00.280Z,25.20
2017-06-23T02:41:27.799Z,25.10
2017-06-23T02:43:55.347Z,25.00
2017-06-23T02:46:23.615Z,25.00
2017-06-23T02:48:51.119Z,25.00
2017-06-23T02:51:18.626Z,24.90
2017-06-23T02:53:46.475Z,24.90
2017-06-23T02:56:13.992Z,24.90
2017-06-23T02:58:41.959Z,24.80
2017-06-23T03:01:09.568Z,24.80
2017-06-23T03:03:37.071Z,24.80
2017-06-23T03:06:04.888Z,24.80
2017-06-23T03:08:33.100Z,24.80
2017-06-23T03:11:01.375Z,24.70
2017-06-23T03:13:28.951Z,24.70
2017-06-23T03:15:56.467Z,24.70
2017-06-23T03:18:23.987Z,24.70
2017-06-23T03:20:51.687Z,24.70
2017-06-23T03:23:19.211Z,24.80
2017-06-23T03:25:46.718Z,24.80
2017-06-23T03:28:14.643Z,24.90
2017-06-23T03:30:42.160Z,24.90
2017-06-23T03:33:09.671Z,24.90
2017-06-23T03:35:37.235Z,24.90
2017-06-23T03:38:04.756Z,24.30
2017-06-23T03:40:32.258Z,23.90
2017-06-23T03:42:59.837Z,23.60
2017-06-23T03:45:27.352Z,23.30
2017-06-23T03:47:54.929Z,23.20
2017-06-23T03:50:22.811Z,23.10
2017-06-23T03:52:51.011Z,23.00
2017-06-23T03:55:18.539Z,23.10
2017-06-23T03:57:46.402Z,23.10
2017-06-23T04:00:13.995Z,23.10
2017-06-23T04:02:41.503Z,23.20
2017-06-23T04:05:09.071Z,23.20
2017-06-23T04:07:36.588Z,23.40
2017-06-23T04:10:04.148Z,23.60
2017-06-23T04:12:32.007Z,23.90
2017-06-23T04:14:59.526Z,24.20
2017-06-23T04:17:27.042Z,24.40
2017-06-23T04:19:54.596Z,24.60
2017-06-23T04:22:22.114Z,25.00
2017-06-23T04:24:49.659Z,25.20
2017-06-23T04:27:17.523Z,25.50
2017-06-23T04:29:45.031Z,25.90
2017-06-23T04:32:12.593Z,26.30
2017-06-23T04:34:40.157Z,26.70
2017-06-23T04:37:07.664Z,26.70
2017-06-23T04:39:35.180Z,26.40
2017-06-23T04:42:02.757Z,26.30
2017-06-23T04:44:30.275Z,26.30
2017-06-23T04:46:57.782Z,26.60
2017-06-23T04:49:25.616Z,26.90
2017-06-23T04:51:53.213Z,27.00
2017-06-23T04:54:20.732Z,27.30
2017-06-23T04:56:48.659Z,27.40
2017-06-23T04:59:16.165Z,27.50
2017-06-23T05:01:43.674Z,27.90
2017-06-23T05:04:11.268Z,28.40
2017-06-23T05:06:38.780Z,28.70
2017-06-23T05:09:06.284Z,28.90
2017-06-23T05:11:33.891Z,28.80
2017-06-23T05:14:01.399Z,28.50
2017-06-23T05:16:28.915Z,28.90
2017-06-23T05:18:56.717Z,28.90
2017-06-23T05:21:24.228Z,29.10
2017-06-23T05:23:52.007Z,29.10
2017-06-23T05:26:20.135Z,29.60
2017-06-23T05:28:47.683Z,29.40
2017-06-23T05:31:15.590Z,29.40
2017-06-23T05:33:43.964Z,29.70
2017-06-23T05:36:11.473Z,29.60
2017-06-23T05:38:39.289Z,29.50
2017-06-23T05:41:06.807Z,28.90
2017-06-23T05:43:34.446Z,28.90
2017-06-23T05:46:02.720Z,29.10
2017-06-23T05:48:30.236Z,28.80
2017-06-23T05:50:57.750Z,28.60
2017-06-23T05:53:25.322Z,28.60
2017-06-23T05:55:52.831Z,28.90
2017-06-23T05:58:20.359Z,29.00
2017-06-23T06:00:48.158Z,29.00
2017-06-23T06:03:15.751Z,29.20
2017-06-23T06:05:43.262Z,29.60
2017-06-23T06:08:10.818Z,30.10
2017-06-23T06:10:38.331Z,30.10
2017-06-23T06:13:05.835Z,30.10
2017-06-23T06:15:33.679Z,29.90
2017-06-23T06:18:01.206Z,29.50
2017-06-23T06:20:28.803Z,29.60
2017-06-23T06:22:56.679Z,30.30
2017-06-23T06:25:24.195Z,31.10
2017-06-23T06:27:51.698Z,31.40
2017-06-23T06:30:19.292Z,31.80
2017-06-23T06:32:46.895Z,31.40
2017-06-23T06:35:14.399Z,31.60
2017-06-23T06:37:41.970Z,31.60
2017-06-23T06:40:09.547Z,32.20
2017-06-23T06:42:37.055Z,30.80
2017-06-23T06:45:04.996Z,31.20
2017-06-23T06:47:32.507Z,30.40
2017-06-23T06:50:00.021Z,30.10
2017-06-23T06:52:27.855Z,30.70
2017-06-23T06:54:55.368Z,31.10
2017-06-23T06:57:22.906Z,31.40
2017-06-23T06:59:50.705Z,32.00
2017-06-23T07:02:18.231Z,32.20
2017-06-23T07:04:45.807Z,31.40
2017-06-23T07:07:13.432Z,31.70
2017-06-23T07:09:40.941Z,31.80
2017-06-23T07:12:08.460Z,31.80
2017-06-23T07:14:36.259Z,31.70
2017-06-23T07:17:03.775Z,32.10
2017-06-23T07:19:31.596Z,32.20
2017-06-23T07:21:59.164Z,33.30
2017-06-23T07:24:26.678Z,33.80
2017-06-23T07:26:54.191Z,33.50
2017-06-23T07:29:21.992Z,33.60
2017-06-23T07:31:49.503Z,32.80
2017-06-23T07:34:17.023Z,31.70
2017-06-23T07:36:44.583Z,30.70
2017-06-23T07:39:12.131Z,31.40
2017-06-23T07:41:39.670Z,31.30
2017-06-23T07:44:07.575Z,30.80
2017-06-23T07:46:35.092Z,30.70
2017-06-23T07:49:02.597Z,30.70
2017-06-23T07:51:30.407Z,30.90
2017-06-23T07:53:57.923Z,31.20
2017-06-23T07:56:25.431Z,31.20
2017-06-23T07:58:53.663Z,31.00
2017-06-23T08:01:21.221Z,30.90
2017-06-23T08:03:48.831Z,30.60
2017-06-23T08:06:16.424Z,30.80
2017-06-23T08:08:43.928Z,30.10
2017-06-23T08:11:11.435Z,30.10
2017-06-23T08:13:39.026Z,30.10
2017-06-23T08:16:06.538Z,29.70
2017-06-23T08:18:34.051Z,29.90
2017-06-23T08:21:01.611Z,29.70
2017-06-23T08:23:29.163Z,29.80
2017-06-23T08:25:56.693Z,29.70
2017-06-23T08:28:24.484Z,29.70
2017-06-23T08:30:52.064Z,29.40
2017-06-23T08:33:19.575Z,29.10
2017-06-23T08:35:47.125Z,28.70
2017-06-23T08:38:14.642Z,28.70
2017-06-23T08:40:42.604Z,29.10
2017-06-23T08:43:10.677Z,29.50
2017-06-23T08:45:38.196Z,29.60
2017-06-23T08:48:05.703Z,29.70
2017-06-23T08:50:33.265Z,29.60
2017-06-23T08:53:00.827Z,29.50
2017-06-23T08:55:28.350Z,29.70
2017-06-23T08:57:56.171Z,29.50
2017-06-23T09:00:23.687Z,29.50
2017-06-23T09:02:51.199Z,29.60
2017-06-23T09:05:19.063Z,29.30
2017-06-23T09:07:46.603Z,29.20
2017-06-23T09:10:14.131Z,29.10
2017-06-23T09:12:41.755Z,28.50
2017-06-23T09:15:09.266Z,28.90
2017-06-23T09:17:36.787Z,28.90
2017-06-23T09:20:04.364Z,29.20
2017-06-23T09:22:31.890Z,29.30
2017-06-23T09:24:59.424Z,29.30
2017-06-23T09:27:27.384Z,29.50
2017-06-23T09:29:54.891Z,29.70
2017-06-23T09:32:22.408Z,30.00
2017-06-23T09:34:50.215Z,29.90
2017-06-23T09:37:17.731Z,29.20
2017-06-23T09:39:45.343Z,29.40
2017-06-23T09:42:12.911Z,29.10
2017-06-23T09:44:40.428Z,29.30
2017-06-23T09:47:07.936Z,29.20
2017-06-23T09:49:35.843Z,29.80
2017-06-23T09:52:03.423Z,29.60
2017-06-23T09:54:30.955Z,29.50
2017-06-23T09:56:58.831Z,29.20
2017-06-23T09:59:26.359Z,29.50
2017-06-23T10:01:53.879Z,28.80
2017-06-23T10:04:21.540Z,28.70
2017-06-23T10:06:49.058Z,29.10
2017-06-23T10:09:16.562Z,28.70
2017-06-23T10:11:44.141Z,28.60
2017-06-23T10:14:11.655Z,28.60
2017-06-23T10:16:39.166Z,28.80
2017-06-23T10:19:07.093Z,29.00
2017-06-23T10:21:34.597Z,29.30
2017-06-23T10:24:02.100Z,29.80
2017-06-23T10:26:29.671Z,29.80
2017-06-23T10:28:57.175Z,30.40
2017-06-23T10:31:24.675Z,30.10
2017-06-23T10:33:52.488Z,30.50
2017-06-23T10:36:19.991Z,30.60
2017-06-23T10:38:47.536Z,30.90
2017-06-23T10:41:15.483Z,30.50
2017-06-23T10:43:43.682Z,29.70
2017-06-23T10:46:11.252Z,30.50
2017-06-23T10:48:39.061Z,30.70
2017-06-23T10:51:06.569Z,30.70
2017-06-23T10:53:34.083Z,31.30
2017-06-23T10:56:02.096Z,31.80
2017-06-23T10:58:29.635Z,32.00
2017-06-23T11:00:57.179Z,32.60
2017-06-23T11:03:25.051Z,32.40
2017-06-23T11:05:52.573Z,31.50
2017-06-23T11:08:20.078Z,31.40
2017-06-23T11:10:47.951Z,30.90
2017-06-23T11:13:15.638Z,30.70
2017-06-23T11:15:43.191Z,30.60
2017-06-23T11:18:11.098Z,30.60
2017-06-23T11:20:38.636Z,30.90
2017-06-23T11:23:06.143Z,30.50
2017-06-23T11:25:33.716Z,30.80
2017-06-23T11:28:01.279Z,31.60
2017-06-23T11:30:28.811Z,31.40
2017-06-23T11:32:56.988Z,31.60
2017-06-23T11:35:24.523Z,31.10
2017-06-23T11:37:52.026Z,31.80
2017-06-23T11:40:19.831Z,32.50
2017-06-23T11:42:47.348Z,31.70
2017-06-23T11:45:14.860Z,31.60
2017-06-23T11:47:42.428Z,31.90
2017-06-23T11:50:10.039Z,30.70
2017-06-23T11:52:37.547Z,31.00
2017-06-23T11:55:05.371Z,31.00
2017-06-23T11:57:32.920Z,30.60
2017-06-23T12:00:00.443Z,31.40
2017-06-23T12:02:28.223Z,31.80
2017-06-23T12:04:55.733Z,32.00
2017-06-23T12:07:23.240Z,31.70
2017-06-23T12:09:50.889Z,31.90
2017-06-23T12:12:18.483Z,31.40
2017-06-23T12:14:46.007Z,31.30
2017-06-23T12:17:13.823Z,31.60
2017-06-23T12:19:41.339Z,31.10
2017-06-23T12:22:08.843Z,31.00
2017-06-23T12:24:36.453Z,31.20
2017-06-23T12:27:03.971Z,31.60
2017-06-23T12:29:31.591Z,31.70
2017-06-23T12:31:59.165Z,31.50
2017-06-23T12:34:26.707Z,31.00
2017-06-23T12:36:54.331Z,30.80
2017-06-23T12:39:21.903Z,31.60
2017-06-23T12:41:49.425Z,31.40
2017-06-23T12:44:17.008Z,31.80
2017-06-23T12:46:44.660Z,31.80
2017-06-23T12:49:12.295Z,31.60
2017-06-23T12:51:39.964Z,31.40
2017-06-23T12:54:07.904Z,31.60
2017-06-23T12:56:36.215Z,31.00
2017-06-23T12:59:04.404Z,31.00
2017-06-23T13:01:31.911Z,31.00
2017-06-23T13:04:00.359Z,31.40
2017-06-23T13:06:28.275Z,31.20
2017-06-23T13:08:55.835Z,31.10
2017-06-23T13:11:24.167Z,31.50
2017-06-23T13:13:52.038Z,31.60
2017-06-23T13:16:19.835Z,31.90
2017-06-23T13:18:47.740Z,31.90
2017-06-23T13:21:15.311Z,32.10
2017-06-23T13:23:43.155Z,32.60
2017-06-23T13:26:10.884Z,33.00
2017-06-23T13:28:38.439Z,32.60
2017-06-23T13:31:05.964Z,32.20
2017-06-23T13:33:33.471Z,33.00
2017-06-23T13:36:01.299Z,32.70
2017-06-23T13:38:28.811Z,32.50
2017-06-23T13:40:56.331Z,32.70
2017-06-23T13:43:23.929Z,32.50
2017-06-23T13:45:51.439Z,32.20
2017-06-23T13:48:19.314Z,33.20
2017-06-23T13:50:47.543Z,32.70
2017-06-23T13:53:15.104Z,32.90
2017-06-23T13:55:43.033Z,33.10
2017-06-23T13:58:10.541Z,33.00
2017-06-23T14:00:38.059Z,33.60
2017-06-23T14:03:05.646Z,32.80
2017-06-23T14:05:33.155Z,32.10
2017-06-23T14:08:00.967Z,32.40
2017-06-23T14:10:28.471Z,32.00
2017-06-23T14:12:55.989Z,31.50
2017-06-23T14:15:23.862Z,31.20
2017-06-23T14:17:51.371Z,31.40
2017-06-23T14:20:18.916Z,31.20
2017-06-23T14:22:46.835Z,31.40
2017-06-23T14:25:14.395Z,31.60
2017-06-23T14:27:42.247Z,32.30
2017-06-23T14:30:09.802Z,32.60
2017-06-23T14:32:37.334Z,32.20
2017-06-23T14:35:04.899Z,32.00
2017-06-23T14:37:32.414Z,32.00
2017-06-23T14:39:59.965Z,31.80
2017-06-23T14:42:27.559Z,31.80
2017-06-23T14:44:55.596Z,32.20
2017-06-23T14:47:23.154Z,32.00
2017-06-23T14:49:50.998Z,32.30
2017-06-23T14:52:18.559Z,32.30
2017-06-23T14:54:46.088Z,32.40
2017-06-23T14:57:13.671Z,32.60
2017-06-23T14:59:41.481Z,32.80
2017-06-23T15:02:08.987Z,32.70
2017-06-23T15:04:36.799Z,32.70
2017-06-23T15:07:04.453Z,33.10
2017-06-23T15:09:32.477Z,32.70
2017-06-23T15:11:59.991Z,33.60
2017-06-23T15:14:27.501Z,32.40
2017-06-23T15:16:55.139Z,32.20
2017-06-23T15:19:22.671Z,32.00
2017-06-23T15:21:49.683Z,31.80
2017-06-23T15:24:17.527Z,31.70
2017-06-23T15:26:45.035Z,31.60
2017-06-23T15:29:12.543Z,31.20
2017-06-23T15:31:40.099Z,31.40
2017-06-23T15:34:07.688Z,31.50
2017-06-23T15:36:35.207Z,31.20
2017-06-23T15:39:03.152Z,31.20
2017-06-23T15:41:30.674Z,31.40
2017-06-23T15:43:58.400Z,31.10
2017-06-23T15:46:26.019Z,31.00
2017-06-23T15:48:53.562Z,31.20
2017-06-23T15:51:21.147Z,31.20
2017-06-23T15:53:49.043Z,31.00
2017-06-23T15:56:16.578Z,30.90
2017-06-23T15:58:44.115Z,31.00
2017-06-23T16:01:11.691Z,30.90
2017-06-23T16:03:39.277Z,30.60
2017-06-23T16:06:06.787Z,30.60
2017-06-23T16:08:34.591Z,30.30
2017-06-23T16:11:02.140Z,30.10
2017-06-23T16:13:29.660Z,30.20
2017-06-23T16:15:57.491Z,30.50
2017-06-23T16:18:25.059Z,30.40
2017-06-23T16:20:52.743Z,30.20
2017-06-23T16:23:20.434Z,30.10
2017-06-23T16:25:48.040Z,29.60
2017-06-23T16:28:15.575Z,29.50
2017-06-23T16:30:43.309Z,29.30
2017-06-23T16:33:10.815Z,29.20
2017-06-23T16:35:38.554Z,29.20
2017-06-23T16:38:06.179Z,29.70
2017-06-23T16:40:33.700Z,29.50
2017-06-23T16:43:01.231Z,29.50
2017-06-23T16:45:29.076Z,29.10
2017-06-23T16:47:56.584Z,29.20
2017-06-23T16:50:24.108Z,29.30
2017-06-23T16:52:51.699Z,29.50
2017-06-23T16:55:19.235Z,29.60
2017-06-23T16:57:46.751Z,29.30
2017-06-23T17:00:14.319Z,28.90
2017-06-23T17:02:41.927Z,28.90
2017-06-23T17:05:09.434Z,28.90
2017-06-23T17:07:37.040Z,29.10
2017-06-23T17:10:04.553Z,29.10
2017-06-23T17:12:32.071Z,29.00
2017-06-23T17:14:59.675Z,29.30
2017-06-23T17:17:27.241Z,29.40
2017-06-23T17:19:54.767Z,29.40
2017-06-23T17:22:22.516Z,29.00
2017-06-23T17:24:50.065Z,28.90
2017-06-23T17:27:17.575Z,28.80
2017-06-23T17:29:45.190Z,28.90
2017-06-23T17:32:12.720Z,29.30
2017-06-23T17:34:40.256Z,29.50
2017-06-23T17:37:08.079Z,29.20
2017-06-23T17:39:35.703Z,28.90
2017-06-23T17:42:02.992Z,28.80
2017-06-23T17:44:30.577Z,28.60
2017-06-23T17:46:58.083Z,28.40
2017-06-23T17:49:25.599Z,28.40
2017-06-23T17:51:53.221Z,28.30
2017-06-23T17:54:21.399Z,28.20
2017-06-23T17:56:48.951Z,28.10
2017-06-23T17:59:16.764Z,28.20
2017-06-23T18:01:44.282Z,28.20
2017-06-23T18:04:11.805Z,28.20
2017-06-23T18:06:39.416Z,28.20
2017-06-23T18:09:07.000Z,28.20
2017-06-23T18:11:35.410Z,28.20
2017-06-23T18:14:03.282Z,28.30
2017-06-23T18:16:30.791Z,28.10
2017-06-23T18:18:58.880Z,27.90
2017-06-23T18:21:26.423Z,27.80
2017-06-23T18:23:54.107Z,27.80
2017-06-23T18:26:21.791Z,27.90
2017-06-23T18:28:49.827Z,27.80
2017-06-23T18:31:17.387Z,27.60
2017-06-23T18:33:45.259Z,27.60
2017-06-23T18:36:12.774Z,27.60
2017-06-23T18:38:40.380Z,27.60
2017-06-23T18:41:08.251Z,27.60
2017-06-23T18:43:35.881Z,27.30
2017-06-23T18:46:03.547Z,27.20
2017-06-23T18:48:31.367Z,27.20
2017-06-23T18:50:58.904Z,26.90
2017-06-23T18:53:26.503Z,26.80
2017-06-23T18:55:54.087Z,26.60
2017-06-23T18:58:21.598Z,26.50
2017-06-23T19:00:49.249Z,26.30
2017-06-23T19:03:17.171Z,26.10
2017-06-23T19:05:44.959Z,25.90
2017-06-23T19:08:12.564Z,25.80
2017-06-23T19:10:40.426Z,25.60
2017-06-23T19:13:07.935Z,25.50
2017-06-23T19:15:35.475Z,25.30
2017-06-23T19:18:03.336Z,25.20
2017-06-23T19:20:30.880Z,25.10
2017-06-23T19:22:58.491Z,25.00
2017-06-23T19:25:26.391Z,24.90
2017-06-23T19:27:53.912Z,24.70
2017-06-23T19:30:21.435Z,24.70
2017-06-23T19:32:49.127Z,24.60
2017-06-23T19:35:16.675Z,24.50
2017-06-23T19:37:44.182Z,24.40
2017-06-23T19:40:11.747Z,24.30
2017-06-23T19:42:39.259Z,24.30
2017-06-23T19:45:07.724Z,24.20
2017-06-23T19:47:35.303Z,24.10
2017-06-23T19:50:02.826Z,24.10
2017-06-23T19:52:30.404Z,23.90
2017-06-23T19:54:57.946Z,23.90
2017-06-23T19:57:25.511Z,24.00
2017-06-23T19:59:53.020Z,24.00
2017-06-23T20:02:20.846Z,24.00
2017-06-23T20:04:48.382Z,23.90
2017-06-23T20:07:16.011Z,23.90
2017-06-23T20:09:43.574Z,23.80
2017-06-23T20:12:11.151Z,23.70
2017-06-23T20:14:38.667Z,23.70
2017-06-23T20:17:06.495Z,23.60
2017-06-23T20:19:34.140Z,23.60
2017-06-23T20:22:01.960Z,23.60
2017-06-23T20:24:29.758Z,23.60
2017-06-23T20:26:57.313Z,23.50
2017-06-23T20:29:24.836Z,23.50
2017-06-23T20:31:52.712Z,23.40
2017-06-23T20:34:20.251Z,23.40
2017-06-23T20:36:48.043Z,23.50
2017-06-23T20:39:15.611Z,23.50
2017-06-23T20:41:43.176Z,23.50
2017-06-23T20:44:10.838Z,23.50
2017-06-23T20:46:38.395Z,23.40
2017-06-23T20:49:06.048Z,23.40
2017-06-23T20:51:33.603Z,23.30
2017-06-23T20:54:01.176Z,23.30
2017-06-23T20:56:28.683Z,23.20
2017-06-23T20:58:56.415Z,23.00
2017-06-23T21:01:24.810Z,23.10
2017-06-23T21:03:52.322Z,23.00
2017-06-23T21:06:19.839Z,22.90
2017-06-23T21:08:48.558Z,22.80
2017-06-23T21:11:16.855Z,22.70
2017-06-23T21:13:44.424Z,22.70
2017-06-23T21:16:11.939Z,22.60
2017-06-23T21:18:39.750Z,22.70
2017-06-23T21:21:07.284Z,22.60
2017-06-23T21:23:34.956Z,22.60
2017-06-23T21:26:02.560Z,22.60
2017-06-23T21:28:30.073Z,22.60
2017-06-23T21:30:57.576Z,22.60
2017-06-23T21:33:25.133Z,22.50
2017-06-23T21:35:52.714Z,22.50
2017-06-23T21:38:20.248Z,22.30
2017-06-23T21:40:59.491Z,22.30
2017-06-23T21:43:26.999Z,22.30
2017-06-23T21:45:54.506Z,22.20
2017-06-23T21:48:22.169Z,22.20
2017-06-23T21:50:49.740Z,22.20
2017-06-23T21:53:17.299Z,22.20
2017-06-23T21:55:45.131Z,22.30
2017-06-23T21:58:12.638Z,22.20
2017-06-23T22:00:40.443Z,22.30
2017-06-23T22:03:08.006Z,22.20
2017-06-23T22:05:35.516Z,22.20
2017-06-23T22:08:03.130Z,22.20
2017-06-23T22:10:30.692Z,22.20
2017-06-23T22:12:58.280Z,22.10
2017-06-23T22:15:25.795Z,22.10
2017-06-23T22:17:53.384Z,22.00
2017-06-23T22:20:20.908Z,22.00
2017-06-23T22:22:49.130Z,22.00
2017-06-23T22:25:17.067Z,21.90
2017-06-23T22:27:44.575Z,21.80
2017-06-23T22:30:12.091Z,21.80
2017-06-23T22:32:39.696Z,21.80
2017-06-23T22:35:07.314Z,21.70
2017-06-23T22:37:35.062Z,21.50
2017-06-23T22:40:02.668Z,21.40
2017-06-23T22:42:30.185Z,21.40
2017-06-23T22:44:57.691Z,21.30
2017-06-23T22:47:25.337Z,21.30
2017-06-23T22:49:52.850Z,21.20
2017-06-23T22:52:20.372Z,21.20
2017-06-23T22:54:48.098Z,21.10
2017-06-23T22:57:15.663Z,21.10
2017-06-23T22:59:43.331Z,20.90
2017-06-23T23:02:10.979Z,20.90
2017-06-23T23:04:38.511Z,20.80
2017-06-23T23:07:06.028Z,20.70
2017-06-23T23:09:33.925Z,20.70
2017-06-23T23:12:01.446Z,20.70
2017-06-23T23:14:29.007Z,20.50
2017-06-23T23:16:56.583Z,20.40
2017-06-23T23:19:24.107Z,20.40
2017-06-23T23:21:51.914Z,20.40
2017-06-23T23:24:19.740Z,20.30
2017-06-23T23:26:47.335Z,20.30
2017-06-23T23:29:14.876Z,20.20
2017-06-23T23:31:42.447Z,20.20
2017-06-23T23:34:09.961Z,20.20
2017-06-23T23:36:37.497Z,20.10
2017-06-23T23:39:05.318Z,20.10
2017-06-23T23:41:33.139Z,20.00
2017-06-23T23:44:00.659Z,19.90
2017-06-23T23:46:28.226Z,19.90
2017-06-23T23:48:56.002Z,19.90
2017-06-23T23:51:23.522Z,19.80
2017-06-23T23:53:51.799Z,19.70
2017-06-23T23:56:19.432Z,19.80
2017-06-23T23:58:46.964Z,19.70
